Terminal Aerodrome Forecast
Issued by NWS Amarillo, TX

Home | Current Version | Previous Version | Text Only | Print | Product List | Glossary On
Versions: 1 2 3 4 5 6 7 8 9 10 11 12 13 14 15 16 17
658
FTUS44 KAMA 250558
TAFGUY
TAF
KGUY 250558Z 2506/2606 17006KT P6SM OVC060
     FM251300 18009KT P6SM -SHRA OVC015
     FM251800 16010KT P6SM OVC025
     FM252300 15009KT P6SM OVC035=

USA.gov is the U.S. government's official web portal to all federal, state and local government web resources and services.